Paraburdoo, Western Australia

4:05 PM WST on September 01, 2014 (GMT +0800)
Paraburdoo | Change Station
CLOSE
Current Station
Airport
Location: Paraburdoo Airport,
Elevation: 1404 ft
Nearby Weather Stations

Elev 1404 ft 23.17 °S, 117.75 °E | Updated 1 hour ago

Clear
Clear
93 °F
Feels Like 93 °F
N
10
Wind Variable Wind from East

Today
High -- | Low -- °F
--% Chance of Precip.
Yesterday
High -- | Low -- °F
Precip. -- in
6:20 AM 5:58 PM
Waxing Crescent, 38% visible
Pressure 29.95 in
Visibility 6.2 miles
Clouds
Dew Point 16 °F
Humidity 6%
Rainfall 0.00 in
Snow Depth Not available.
UV Not available.
Pollen Not available.
Air Quality Not available.
Flu Activity Not available.
METAR YPBO 010700Z AUTO 08009KT 9999 // NCD 34/M09 Q1014

More Conditions Fewer Conditions

Pressure 29.95 in
Visibility 6.2 miles
Clouds
Dew Point 16 °F
Humidity 6%
Rainfall 0.00 in
Snow Depth Not available.
UV Not available.
Pollen Not available.
Air Quality Not available.
Flu Activity Not available.
METAR YPBO 010700Z AUTO 08009KT 9999 // NCD 34/M09 Q1014

More Conditions Fewer Conditions

10-Day Weather Forecast

Almanac

Astronomy

Sep. 01, 2014 Rise Set
Actual Time 6:20 AM WST 5:58 PM WST
Civil Twilight 5:57 AM WST 6:21 PM WST
Nautical Twilight 5:31 AM WST 6:47 PM WST
Astronomical Twilight 5:05 AM WST 7:13 PM WST
Moon 10:22 AM WST 11:46 PM WST
Length of Visible Light 12h 23m
Length of Day
11h 38m
Tomorrow will be 1m 16s longer.
Waxing Crescent, 38% of the Moon is Illuminated
Today
Waxing Crescent
Sep 2
First Quarter
Sep 8
Full
Sep 15
Last Quarter
Sep 24
New

Yesterday's Extremes

Country Highs Country Lows

Community

WunderPhotos

Upload Photos

1,749,175 photos uploaded!

Nearby

Snow Depth

Not available.

Earthquake Activity

City Distance Mag. Time & Date
No recent earthquake activity has been reported nearby.
Minimum magnitude displayed is 2.5.

Coastal Water Temperatures

Place Temperature
No Stations Reporting

Nearby Weather Stations